Latest Weather Observations for Red Rocks Point

IDW60801

Issued at 10:04 am WST Tuesday 21 November 2017 (issued every 30 minutes, with the page automatically refreshed every 10 minutes)

About weather observations | Map of weather stations | Latest weather observations for WA | Other Formats
Station Details ID: 011053 Name: RED ROCKS POINT Lat: -32.20 Lon: 127.53 Height: 3.1 m
Data from the previous 72 hours. | See also: Recent months at Red Rocks Point
Date/Time
WST
Temp
°C
App
Temp
°C
Dew
Point
°C
Rel
Hum
%
Delta-T
°C
Wind Press
QNH
hPa
Press
MSL
hPa
Rain since
9am
mm
Dir  Spd
km/h
Gust
km/h
Spd
kts
Gust
kts
21/10:00am 21.3 18.9 16.5 74 2.9 SSW 24 32 13 17 1012.5 1012.5 0.0
21/09:30am 20.6 18.3 15.6 73 3.0 SW 22 30 12 16 1012.6 1012.6 0.0
21/09:00am 21.1 18.8 15.6 71 3.3 SW 22 32 12 17 1012.4 1012.4 0.0
21/08:30am 21.0 19.3 16.2 74 2.9 SW 20 28 11 15 1012.4 1012.4 0.0
21/08:00am 20.0 18.8 16.0 78 2.4 SSW 17 20 9 11 1012.3 1012.3 0.0
21/07:30am 18.8 18.2 15.7 82 1.8 S 13 17 7 9 1011.9 1011.9 0.0
21/07:00am 18.3 18.5 15.7 85 1.5 SSE 9 15 5 8 1011.7 1011.7 0.0
21/06:30am 18.3 19.0 16.1 87 1.3 ESE 7 11 4 6 1011.6 1011.6 0.0
21/06:00am 18.1 18.1 16.3 89 1.1 ESE 11 15 6 8 1011.3 1011.3 0.0
21/05:30am 17.6 17.5 16.1 91 0.9 ESE 11 15 6 8 1011.2 1011.2 0.0
21/05:00am 17.5 16.7 16.0 91 0.9 E 15 17 8 9 1010.9 1010.9 0.0
21/04:30am 17.8 16.4 16.5 92 0.8 ESE 19 20 10 11 1010.5 1010.5 0.0
21/04:00am 18.0 16.5 16.7 92 0.8 ESE 20 24 11 13 1010.5 1010.5 0.0
21/03:30am 17.8 15.8 16.5 92 0.8 E 22 28 12 15 1010.2 1010.2 0.0
21/03:00am 18.0 16.5 16.7 92 0.8 ESE 20 22 11 12 1010.1 1010.1 0.0
21/02:30am 18.1 16.6 16.8 92 0.8 E 20 24 11 13 1010.0 1010.0 0.0
21/02:00am 18.3 16.4 16.8 91 0.9 E 22 28 12 15 1010.0 1010.0 0.0
21/01:30am 18.5 16.7 17.0 91 0.9 E 22 28 12 15 1009.8 1009.8 0.0
21/01:00am 18.6 16.5 17.1 91 0.9 E 24 28 13 15 1009.9 1009.9 0.0
21/12:30am 18.8 17.2 17.5 92 0.8 E 22 24 12 13 1010.0 1010.0 0.0
21/12:00am 18.8 16.8 17.5 92 0.8 ESE 24 26 13 14 1010.3 1010.3 0.0
 
Date/Time
WST
Temp
°C
App
Temp
°C
Dew
Point
°C
Rel
Hum
%
Delta-T
°C
Wind Press
QNH
hPa
Press
MSL
hPa
Rain since
9am
mm
Dir  Spd
km/h
Gust
km/h
Spd
kts
Gust
kts
20/11:30pm 18.6 17.9 17.3 92 0.8 ESE 17 20 9 11 1011.1 1011.1 0.0
20/11:00pm 18.6 18.6 17.3 92 0.8 SE 13 15 7 8 1011.6 1011.6 0.0
20/10:30pm 18.5 18.9 17.2 92 0.8 SSE 11 13 6 7 1012.0 1012.0 0.0
20/10:00pm 18.3 18.5 16.8 91 0.9 SSW 11 15 6 8 1012.3 1012.3 0.0
20/09:30pm 17.9 18.3 16.4 91 0.9 SW 9 11 5 6 1012.6 1012.6 0.0
20/09:00pm 18.3 18.5 16.8 91 0.9 SSW 11 13 6 7 1012.5 1012.5 0.0
20/08:30pm 18.5 18.7 16.8 90 1.0 SSW 11 13 6 7 1012.4 1012.4 0.0
20/08:00pm 18.5 18.7 16.8 90 1.0 SSW 11 13 6 7 1012.3 1012.3 0.0
20/07:30pm 18.7 19.3 16.9 89 1.1 SSW 9 13 5 7 1011.9 1011.9 0.0
20/07:00pm 18.8 19.0 16.8 88 1.2 SSW 11 13 6 7 1011.8 1011.8 0.0
20/06:30pm 19.0 18.9 17.0 88 1.2 SSW 13 15 7 8 1011.7 1011.7 0.0
20/06:00pm 19.4 18.9 17.0 86 1.5 S 15 19 8 10 1011.3 1011.3 0.0
20/05:30pm 20.0 19.6 17.2 84 1.7 S 15 19 8 10 1011.2 1011.2 0.0
20/05:00pm 20.5 19.4 17.3 82 2.0 S 19 20 10 11 1010.9 1010.9 0.0
20/04:30pm 21.0 19.9 17.4 80 2.2 S 19 22 10 12 1010.7 1010.7 0.0
20/04:00pm 21.2 20.1 17.2 78 2.5 S 19 22 10 12 1010.7 1010.7 0.0
20/03:30pm 21.5 20.1 17.9 80 2.2 S 22 24 12 13 1010.8 1010.8 0.0
20/03:00pm 21.5 19.8 17.3 77 2.6 S 22 26 12 14 1010.8 1010.8 0.0
20/02:30pm 22.2 21.2 18.0 77 2.6 S 20 24 11 13 1010.9 1010.9 0.0
20/02:00pm 22.0 20.8 17.4 75 2.8 S 20 24 11 13 1011.1 1011.1 0.0
20/01:30pm 22.5 21.5 17.6 74 3.0 S 19 22 10 12 1011.2 1011.2 0.0
20/01:00pm 22.5 21.8 17.4 73 3.1 S 17 20 9 11 1011.4 1011.4 0.0
20/12:30pm 21.9 21.3 17.5 76 2.7 SSE 17 19 9 10 1011.4 1011.4 0.0
20/12:00pm 21.5 20.7 17.1 76 2.7 SSE 17 20 9 11 1011.5 1011.5 0.0
20/11:30am 22.1 21.3 18.1 78 2.5 SSE 19 20 10 11 1011.8 1011.8 0.0
20/11:00am 21.8 21.1 17.4 76 2.7 SSE 17 19 9 10 1012.1 1012.1 0.0
20/10:30am 21.1 21.0 16.9 77 2.6 SSE 13 17 7 9 1012.4 1012.4 0.0
20/10:00am 21.3 21.4 17.5 79 2.3 SSE 13 13 7 7 1012.5 1012.5 0.0
20/09:30am 20.7 20.7 17.3 81 2.1 SSE 13 15 7 8 1012.6 1012.6 0.0
20/09:00am 19.8 20.5 17.0 84 1.7 SSE 9 9 5 5 1013.0 1013.0 0.0
20/08:30am 20.2 21.1 17.6 85 1.6 SE 9 9 5 5 1012.6 1012.6 0.0
20/08:00am 19.5 21.9 17.1 86 1.5 CALM 0 0 0 0 1012.4 1012.4 0.0
20/07:30am 19.4 21.8 17.0 86 1.5 CALM 0 0 0 0 1012.4 1012.4 0.0
20/07:00am 19.1 20.3 16.9 87 1.3 E 6 9 3 5 1012.3 1012.3 0.0
20/06:30am 19.0 20.3 17.0 88 1.2 ESE 6 15 3 8 1012.0 1012.0 0.0
20/06:00am 19.1 19.9 17.2 89 1.2 SE 9 11 5 6 1011.8 1011.8 0.0
20/05:30am 18.6 18.9 16.9 90 1.0 SSE 11 17 6 9 1011.9 1011.9 0.0
20/05:00am 18.5 18.8 17.0 91 0.9 SSE 11 15 6 8 1011.8 1011.8 0.0
20/04:30am 18.6 18.6 17.3 92 0.8 SSE 13 17 7 9 1011.7 1011.7 0.0
20/04:00am 18.5 18.5 17.2 92 0.8 S 13 15 7 8 1011.6 1011.6 0.0
20/03:30am 18.4 18.3 16.9 91 0.9 SSW 13 15 7 8 1011.5 1011.5 0.0
20/03:00am 18.5 18.9 17.2 92 0.8 S 11 13 6 7 1011.4 1011.4 0.0
20/02:30am 18.3 19.0 17.0 92 0.8 SSW 9 13 5 7 1011.6 1011.6 0.0
20/02:00am 18.4 19.1 17.1 92 0.8 SW 9 13 5 7 1011.7 1011.7 0.0
20/01:30am 18.4 19.5 17.1 92 0.8 SW 7 11 4 6 1011.7 1011.7 0.0
20/01:00am 18.4 19.5 17.1 92 0.8 SW 7 11 4 6 1011.8 1011.8 0.0
20/12:30am 18.4 19.1 17.1 92 0.8 SW 9 15 5 8 1011.8 1011.8 0.0
20/12:00am 18.6 18.6 17.1 91 0.9 SW 13 19 7 10 1011.8 1011.8 0.0
 
Date/Time
WST
Temp
°C
App
Temp
°C
Dew
Point
°C
Rel
Hum
%
Delta-T
°C
Wind Press
QNH
hPa
Press
MSL
hPa
Rain since
9am
mm
Dir  Spd
km/h
Gust
km/h
Spd
kts
Gust
kts
19/11:30pm 18.9 19.4 17.4 91 0.9 WSW 11 17 6 9 1012.0 1012.0 0.0
19/11:00pm 18.9 19.7 17.4 91 0.9 W 9 15 5 8 1012.0 1012.0 0.0
19/10:30pm 18.9 19.4 17.4 91 0.9 W 11 17 6 9 1012.2 1012.2 0.0
19/10:00pm 18.9 20.3 17.4 91 0.9 NNE 6 9 3 5 1012.7 1012.7 0.0
19/09:30pm 19.1 18.9 17.6 91 0.9 ENE 15 17 8 9 1012.8 1012.8 0.0
19/09:00pm 18.9 19.0 17.4 91 0.9 ENE 13 15 7 8 1012.8 1012.8 0.0
19/08:30pm 19.0 19.1 17.5 91 0.9 E 13 19 7 10 1012.6 1012.6 0.0
19/08:00pm 19.1 20.3 17.4 90 1.0 S 7 11 4 6 1012.4 1012.4 0.0
19/07:30pm 19.0 19.3 17.1 89 1.2 SW 11 15 6 8 1012.0 1012.0 0.0
19/07:00pm 18.8 18.7 16.9 89 1.1 WSW 13 19 7 10 1011.8 1011.8 0.0
19/06:30pm 18.8 18.6 16.8 88 1.2 WSW 13 20 7 11 1011.5 1011.5 0.0
19/06:00pm 19.1 18.1 16.7 86 1.4 WSW 17 22 9 12 1011.1 1011.1 0.0
19/05:30pm 19.4 18.5 16.8 85 1.6 SW 17 24 9 13 1010.7 1010.7 0.0
19/05:00pm 19.9 19.0 16.9 83 1.8 SW 17 24 9 13 1010.3 1010.3 0.0
19/04:30pm 20.6 20.1 17.0 80 2.2 SSW 15 19 8 10 1009.8 1009.8 0.0
19/04:00pm 20.5 21.1 17.7 84 1.7 SSE 11 13 6 7 1009.5 1009.5 0.0
19/03:30pm 20.6 20.2 17.2 81 2.1 SSE 15 17 8 9 1009.3 1009.3 0.0
19/03:00pm 21.1 20.5 17.5 80 2.2 SE 17 19 9 10 1008.9 1008.9 0.0
19/02:30pm 22.0 22.8 17.4 75 2.8 SSE 9 13 5 7 1008.6 1008.6 0.0
19/02:00pm 21.2 21.6 17.2 78 2.5 SSE 11 15 6 8 1008.8 1008.8 0.0
19/01:30pm 21.4 21.7 17.8 80 2.2 S 13 15 7 8 1008.7 1008.7 0.0
19/01:00pm 21.1 21.8 17.1 78 2.4 SSE 9 15 5 8 1008.8 1008.8 0.0
19/12:30pm 21.5 21.5 17.1 76 2.7 ESE 13 15 7 8 1008.7 1008.7 0.0
19/12:00pm 21.9 22.4 17.5 76 2.7 E 11 15 6 8 1008.7 1008.7 0.0
19/11:30am 21.5 22.4 17.5 78 2.5 SE 9 11 5 6 1008.6 1008.6 0.0
19/11:00am 20.4 19.5 16.8 80 2.2 ESE 17 20 9 11 1008.7 1008.7 0.0
19/10:30am 21.0 21.0 17.2 79 2.3 ESE 13 15 7 8 1009.0 1009.0 0.0
19/10:00am 22.2 22.5 18.8 81 2.1 E 15 17 8 9 1008.9 1008.9 0.0
19/09:30am 21.4 22.1 18.8 85 1.6 E 13 17 7 9 1008.5 1008.5 0.0
19/09:00am 20.0 21.5 18.0 88 1.2 SE 7 11 4 6 1009.0 1009.0 8.6
19/08:30am 19.5 20.3 17.3 87 1.3 SE 9 11 5 6 1009.1 1009.1 8.6
19/08:00am 19.3 19.6 17.1 87 1.3 ESE 11 15 6 8 1009.3 1009.3 8.6
19/07:30am 19.8 20.6 17.2 85 1.6 ESE 9 13 5 7 1009.2 1009.2 8.6
19/07:00am 19.5 19.8 16.9 85 1.6 ESE 11 13 6 7 1009.1 1009.1 8.6
19/06:30am 19.8 20.6 17.2 85 1.6 SE 9 11 5 6 1008.9 1008.9 8.6
19/06:00am 19.9 20.8 17.5 86 1.5 SE 9 11 5 6 1008.5 1008.5 8.6
19/05:30am 19.4 21.7 17.7 90 1.0 ENE 2 9 1 5 1008.0 1008.0 8.6
19/05:00am 18.0 20.1 16.3 90 1.0 CALM 0 0 0 0 1008.2 1008.2 8.6
19/04:30am 16.9 17.3 15.2 90 1.0 WSW 7 11 4 6 1008.0 1008.0 8.6
19/04:00am 16.9 16.9 15.1 89 1.0 W 9 13 5 7 1007.8 1007.8 8.6
19/03:30am 17.4 16.6 15.2 87 1.3 WNW 13 19 7 10 1007.5 1007.5 8.6
19/03:00am 18.3 16.4 15.7 85 1.5 NE 20 26 11 14 1006.2 1006.2 8.6
19/02:30am 19.3 15.3 16.7 85 1.6 ENE 33 41 18 22 1006.0 1006.0 8.6
19/02:00am 19.4 15.1 17.0 86 1.5 ENE 35 46 19 25 1006.1 1006.1 8.6
19/01:30am 19.4 14.5 17.2 87 1.3 ENE 39 46 21 25 1006.1 1006.1 8.6
19/01:00am 19.4 15.1 17.7 90 1.0 ENE 37 44 20 24 1006.8 1006.8 8.6
19/12:30am 18.8 15.0 17.3 91 0.9 E 33 41 18 22 1006.6 1006.6 8.6
19/12:00am 18.3 14.9 16.8 91 0.9 ESE 30 35 16 19 1007.5 1007.5 8.6
 
Date/Time
WST
Temp
°C
App
Temp
°C
Dew
Point
°C
Rel
Hum
%
Delta-T
°C
Wind Press
QNH
hPa
Press
MSL
hPa
Rain since
9am
mm
Dir  Spd
km/h
Gust
km/h
Spd
kts
Gust
kts
18/11:46pm 18.0 17.6 16.3 90 1.0 SSW 13 26 7 14 1008.7 1008.7 8.4
18/11:30pm 18.3 18.3 16.3 88 1.2 NNW 11 17 6 9 1010.7 1010.7 5.8
18/11:00pm 19.1 14.5 16.1 83 1.8 ENE 35 43 19 23 1009.2 1009.2 3.2
18/10:30pm 19.4 13.2 15.9 80 2.1 E 43 52 23 28 1008.1 1008.1 3.2
18/10:00pm 20.0 14.4 15.6 76 2.6 E 39 48 21 26 1008.1 1008.1 3.2
18/09:30pm 20.0 14.7 15.2 74 2.8 ESE 37 48 20 26 1008.1 1008.1 3.2
18/09:00pm 20.1 15.6 15.5 75 2.7 ESE 33 43 18 23 1008.7 1008.7 3.2
18/08:30pm 19.9 13.3 15.3 75 2.7 ESE 44 54 24 29 1007.0 1007.0 3.2
18/08:00pm 19.8 12.5 15.4 76 2.6 ESE 48 61 26 33 1007.0 1007.0 3.2
18/07:30pm 20.2 14.3 15.8 76 2.6 ESE 41 46 22 25 1008.4 1008.4 3.2
18/07:29pm 20.3 14.5 15.9 76 2.6 ESE 41 46 22 25 1008.3 1008.3 3.2
18/07:00pm 19.9 14.3 15.5 76 2.6 SE 39 46 21 25 1008.5 1008.5 3.2
18/06:34pm 21.2 13.9 15.5 70 3.4 SE 48 67 26 36 1007.6 1007.6 3.2
18/06:30pm 20.3 13.4 15.7 75 2.7 SE 46 61 25 33 1007.7 1007.7 3.0
18/06:00pm 21.3 14.4 15.6 70 3.4 SE 46 57 25 31 1007.3 1007.3 3.0
18/05:33pm 20.8 13.6 15.8 73 3.0 SSE 48 70 26 38 1006.2 1006.2 3.0
18/05:30pm 20.7 13.9 15.9 74 2.9 SSE 46 70 25 38 1005.9 1005.9 3.0
18/05:28pm 20.6 14.5 16.2 76 2.6 SSE 43 70 23 38 1005.4 1005.4 2.8
18/05:27pm 20.4 14.7 16.2 77 2.5 SSE 41 70 22 38 1005.4 1005.4 2.8
18/05:24pm 20.0 14.6 16.0 78 2.4 SSE 39 46 21 25 1006.0 1006.0 2.8
18/05:00pm 20.3 17.2 15.5 74 2.9 S 26 33 14 18 1007.5 1007.5 2.0
18/04:30pm 20.4 18.2 15.0 71 3.2 SSW 20 39 11 21 1006.3 1006.3 1.6
18/04:00pm 21.0 18.3 15.5 71 3.3 ESE 24 35 13 19 1004.5 1004.5 0.8
18/03:50pm 21.3 17.8 15.6 70 3.4 E 28 35 15 19 1004.6 1004.6 0.8
18/03:30pm 21.1 22.1 15.4 70 3.4 NNW 4 9 2 5 1005.0 1005.0 0.8
18/03:17pm 21.8 20.3 15.2 66 3.9 E 17 24 9 13 1005.2 1005.2 0.4
18/03:00pm 21.8 17.4 15.2 66 3.9 ESE 32 41 17 22 1003.2 1003.2 0.2
18/02:58pm 22.0 17.5 15.4 66 3.9 ESE 33 43 18 23 1003.3 1003.3 0.2
18/02:30pm 22.2 16.8 15.1 64 4.2 SE 37 56 20 30 1002.6 1002.6 0.2
18/02:20pm 21.7 15.3 15.5 68 3.7 ESE 43 69 23 37 1003.4 1003.4 0.2
18/02:03pm 22.0 18.8 15.4 66 3.9 SE 26 56 14 30 1003.5 1003.5 0.2
18/02:00pm 22.2 20.5 15.8 67 3.9 SE 19 43 10 23 1003.8 1003.8 0.2
18/01:30pm 24.8 21.5 14.9 54 5.9 S 26 33 14 18 1003.8 1003.8 0.0
18/01:00pm 25.5 22.8 15.5 54 6.1 S 24 32 13 17 1003.9 1003.9 0.0
18/12:30pm 27.4 24.4 14.8 46 7.6 SSW 24 32 13 17 1004.5 1004.5 0.0
18/12:00pm 28.9 26.5 14.3 40 8.8 SW 20 30 11 16 1004.4 1004.4 0.0
18/11:30am 30.8 25.8 12.2 32 10.9 SW 30 39 16 21 1004.2 1004.2 0.0
18/11:20am 29.4 24.3 13.6 38 9.4 SW 33 52 18 28 1004.1 1004.1 0.0
18/11:04am 33.3 28.8 10.0 24 13.4 WNW 24 44 13 24 1003.6 1003.6 0.0
18/11:00am 38.7 33.5 7.4 15 17.8 NW 24 44 13 24 1003.4 1003.4 0.0
18/10:30am 40.9 33.9 5.9 12 19.5 NNE 32 46 17 25 1003.3 1003.3 0.0

Other Formats:

Comma delimited format used in spreadsheet applications
http://www.bom.gov.au/fwo/IDW60801/IDW60801.94644.axf

JavaScript Object Notation format (JSON) in row-major order
http://www.bom.gov.au/fwo/IDW60801/IDW60801.94644.json